createdAt,value
2023-05-02T00:01:25.877Z,4.07
2023-05-02T00:03:53.147Z,3.98
2023-05-02T00:06:19.661Z,4.09
2023-05-02T00:08:47.388Z,4.11
2023-05-02T00:11:13.781Z,3.87
2023-05-02T00:13:40.479Z,3.93
2023-05-02T00:16:06.872Z,4.03
2023-05-02T00:18:33.271Z,3.76
2023-05-02T00:20:59.643Z,3.95
2023-05-02T00:23:26.083Z,3.93
2023-05-02T00:25:52.866Z,3.87
2023-05-02T00:28:26.761Z,3.95
2023-05-02T00:30:53.235Z,3.66
2023-05-02T00:33:19.662Z,3.76
2023-05-02T00:35:46.394Z,3.84
2023-05-02T00:38:13.125Z,3.81
2023-05-02T00:40:39.608Z,3.90
2023-05-02T00:43:05.994Z,3.91
2023-05-02T00:45:32.384Z,3.83
2023-05-02T00:47:58.813Z,3.64
2023-05-02T00:50:25.222Z,3.84
2023-05-02T00:52:51.597Z,3.89
2023-05-02T00:55:18.189Z,3.81
2023-05-02T00:57:44.618Z,3.97
2023-05-02T01:00:11.047Z,4.19
2023-05-02T01:02:37.493Z,4.01
2023-05-02T01:05:03.949Z,4.11
2023-05-02T01:07:30.506Z,4.07
2023-05-02T01:09:57.175Z,4.12
2023-05-02T01:12:24.300Z,4.01
2023-05-02T01:14:50.993Z,4.00
2023-05-02T01:17:18.111Z,3.80
2023-05-02T01:19:48.657Z,3.83
2023-05-02T01:22:15.332Z,3.94
2023-05-02T01:24:42.120Z,4.32
2023-05-02T01:27:08.762Z,3.95
2023-05-02T01:29:35.412Z,4.07
2023-05-02T01:32:02.235Z,3.98
2023-05-02T01:34:29.006Z,3.83
2023-05-02T01:36:55.379Z,4.25
2023-05-02T01:39:21.889Z,4.05
2023-05-02T01:41:48.570Z,4.21
2023-05-02T01:44:15.887Z,4.10
2023-05-02T01:46:42.812Z,3.81
2023-05-02T01:49:09.216Z,4.07
2023-05-02T01:51:36.606Z,4.13
2023-05-02T01:54:03.018Z,4.12
2023-05-02T01:56:29.404Z,4.12
2023-05-02T01:58:55.742Z,4.22
2023-05-02T02:01:22.195Z,4.26
2023-05-02T02:03:48.727Z,4.36
2023-05-02T02:06:15.091Z,4.13
2023-05-02T02:08:41.473Z,4.26
2023-05-02T02:11:07.824Z,3.83
2023-05-02T02:13:34.196Z,4.16
2023-05-02T02:16:00.523Z,4.33
2023-05-02T02:18:27.814Z,4.22
2023-05-02T02:20:54.208Z,4.21
2023-05-02T02:23:20.775Z,3.58
2023-05-02T02:25:49.916Z,3.63
2023-05-02T02:28:16.293Z,4.28
2023-05-02T02:30:42.744Z,4.45
2023-05-02T02:33:09.344Z,4.49
2023-05-02T02:35:35.965Z,4.64
2023-05-02T02:38:04.425Z,4.49
2023-05-02T02:40:30.990Z,4.46
2023-05-02T02:42:57.537Z,3.99
2023-05-02T02:45:23.888Z,4.25
2023-05-02T02:47:50.678Z,4.44
2023-05-02T02:50:17.021Z,4.22
2023-05-02T02:52:43.395Z,4.25
2023-05-02T02:55:09.761Z,4.22
2023-05-02T02:57:38.321Z,4.19
2023-05-02T03:00:05.457Z,3.82
2023-05-02T03:02:31.945Z,4.50
2023-05-02T03:04:58.429Z,4.89
2023-05-02T03:07:26.964Z,4.35
2023-05-02T03:09:53.454Z,4.11
2023-05-02T03:12:19.838Z,3.92
2023-05-02T03:14:46.479Z,4.15
2023-05-02T03:17:13.845Z,4.06
2023-05-02T03:19:40.187Z,3.92
2023-05-02T03:22:06.578Z,4.45
2023-05-02T03:24:33.097Z,3.94
2023-05-02T03:26:59.504Z,4.20
2023-05-02T03:29:25.929Z,4.31
2023-05-02T03:31:52.330Z,4.24
2023-05-02T03:34:18.714Z,4.08
2023-05-02T03:36:45.092Z,4.02
2023-05-02T03:39:11.474Z,4.16
2023-05-02T03:41:37.857Z,4.17
2023-05-02T03:44:04.239Z,4.09
2023-05-02T03:46:31.734Z,4.17
2023-05-02T03:48:58.110Z,4.44
2023-05-02T03:51:24.915Z,4.06
2023-05-02T03:53:51.298Z,4.49
2023-05-02T03:56:17.668Z,4.42
2023-05-02T03:58:44.045Z,4.37
2023-05-02T04:01:10.491Z,4.32
2023-05-02T04:03:37.217Z,4.42
2023-05-02T04:06:03.769Z,4.81
2023-05-02T04:08:30.174Z,4.68
2023-05-02T04:10:56.807Z,4.43
2023-05-02T04:13:23.191Z,4.92
2023-05-02T04:15:49.573Z,4.72
2023-05-02T04:18:16.043Z,5.07
2023-05-02T04:20:42.438Z,4.68
2023-05-02T04:23:08.809Z,4.87
2023-05-02T04:25:35.160Z,4.56
2023-05-02T04:28:01.531Z,4.71
2023-05-02T04:30:27.910Z,4.75
2023-05-02T04:32:56.812Z,4.50
2023-05-02T04:35:23.231Z,4.49
2023-05-02T04:37:51.361Z,4.76
2023-05-02T04:40:17.815Z,4.34
2023-05-02T04:42:44.289Z,4.74
2023-05-02T04:45:10.628Z,5.02
2023-05-02T04:47:37.073Z,4.71
2023-05-02T04:50:04.213Z,5.33
2023-05-02T04:52:31.674Z,5.47
2023-05-02T04:54:58.057Z,5.56
2023-05-02T04:57:24.465Z,5.17
2023-05-02T04:59:53.163Z,5.33
2023-05-02T05:02:20.374Z,4.96
2023-05-02T05:04:46.801Z,5.14
2023-05-02T05:07:13.183Z,4.56
2023-05-02T05:09:40.566Z,4.81
2023-05-02T05:12:06.979Z,4.92
2023-05-02T05:14:33.472Z,5.32
2023-05-02T05:17:00.127Z,5.80
2023-05-02T05:19:33.683Z,5.92
2023-05-02T05:22:00.832Z,6.13
2023-05-02T05:24:27.292Z,5.76
2023-05-02T05:26:54.077Z,6.63
2023-05-02T05:29:20.797Z,6.49
2023-05-02T05:31:47.243Z,5.95
2023-05-02T05:34:15.999Z,6.19
2023-05-02T05:36:42.875Z,5.69
2023-05-02T05:39:16.554Z,6.21
2023-05-02T05:41:43.993Z,5.94
2023-05-02T05:44:10.463Z,5.74
2023-05-02T05:46:37.072Z,5.94
2023-05-02T05:49:03.680Z,5.56
2023-05-02T05:51:30.358Z,5.16
2023-05-02T05:53:56.929Z,5.21
2023-05-02T05:56:23.575Z,5.75
2023-05-02T05:58:50.115Z,6.51
2023-05-02T06:01:16.522Z,6.42
2023-05-02T06:03:43.167Z,6.51
2023-05-02T06:06:09.656Z,6.71
2023-05-02T06:08:38.607Z,6.93
2023-05-02T06:11:05.917Z,7.11
2023-05-02T06:13:32.300Z,7.02
2023-05-02T06:15:58.730Z,7.01
2023-05-02T06:18:25.199Z,7.10
2023-05-02T06:20:51.757Z,6.65
2023-05-02T06:23:18.460Z,7.07
2023-05-02T06:25:45.012Z,6.63
2023-05-02T06:28:11.352Z,6.78
2023-05-02T06:30:38.208Z,6.99
2023-05-02T06:33:04.665Z,7.27
2023-05-02T06:35:31.181Z,6.98
2023-05-02T06:37:57.759Z,7.53
2023-05-02T06:40:24.134Z,7.42
2023-05-02T06:42:50.548Z,7.15
2023-05-02T06:45:16.899Z,7.10
2023-05-02T06:47:45.752Z,6.24
2023-05-02T06:50:12.452Z,6.84
2023-05-02T06:52:39.066Z,6.82
2023-05-02T06:55:05.469Z,6.18
2023-05-02T06:57:31.827Z,5.88
2023-05-02T06:59:58.724Z,6.19
2023-05-02T07:02:25.317Z,5.76
2023-05-02T07:04:53.991Z,5.44
2023-05-02T07:07:21.429Z,5.35
2023-05-02T07:09:47.780Z,5.06
2023-05-02T07:12:14.260Z,4.73
2023-05-02T07:14:41.419Z,4.85
2023-05-02T07:17:12.227Z,5.25
2023-05-02T07:19:39.590Z,5.14
2023-05-02T07:22:05.983Z,5.23
2023-05-02T07:24:37.090Z,5.14
2023-05-02T07:27:04.537Z,5.54
2023-05-02T07:29:31.266Z,5.47
2023-05-02T07:31:57.652Z,5.65
2023-05-02T07:34:24.148Z,5.29
2023-05-02T07:36:50.746Z,5.13
2023-05-02T07:39:17.107Z,5.52
2023-05-02T07:41:43.489Z,5.58
2023-05-02T07:44:10.130Z,6.72
2023-05-02T07:46:36.672Z,6.75
2023-05-02T07:49:03.460Z,6.47
2023-05-02T07:51:29.914Z,6.66
2023-05-02T07:53:56.277Z,6.41
2023-05-02T07:56:24.942Z,6.17
2023-05-02T07:58:51.369Z,6.01
2023-05-02T08:01:17.854Z,5.83
2023-05-02T08:03:44.448Z,6.37
2023-05-02T08:06:11.151Z,6.02
2023-05-02T08:08:39.047Z,6.27
2023-05-02T08:11:08.004Z,6.66
2023-05-02T08:13:34.506Z,6.54
2023-05-02T08:16:00.918Z,6.35
2023-05-02T08:18:27.349Z,6.43
2023-05-02T08:20:53.857Z,6.31
2023-05-02T08:23:20.249Z,6.52
2023-05-02T08:25:46.758Z,6.80
2023-05-02T08:28:14.919Z,6.91
2023-05-02T08:30:41.610Z,7.07
2023-05-02T08:33:08.059Z,7.36
2023-05-02T08:35:34.633Z,7.78
2023-05-02T08:38:01.392Z,8.07
2023-05-02T08:40:40.884Z,8.76
2023-05-02T08:43:08.568Z,9.81
2023-05-02T08:45:34.950Z,9.62
2023-05-02T08:48:01.709Z,9.77
2023-05-02T08:50:30.330Z,9.88
2023-05-02T08:52:56.815Z,9.97
2023-05-02T08:55:23.282Z,10.24
2023-05-02T08:57:49.777Z,9.67
2023-05-02T09:00:16.406Z,10.25
2023-05-02T09:02:42.914Z,9.88
2023-05-02T09:05:09.977Z,9.67
2023-05-02T09:07:36.923Z,9.46
2023-05-02T09:10:03.698Z,9.52
2023-05-02T09:12:30.388Z,9.08
2023-05-02T09:14:56.813Z,9.26
2023-05-02T09:17:23.269Z,9.26
2023-05-02T09:19:50.152Z,9.26
2023-05-02T09:22:17.637Z,8.83
2023-05-02T09:24:44.039Z,9.18
2023-05-02T09:27:10.598Z,9.19
2023-05-02T09:29:36.933Z,8.68
2023-05-02T09:32:03.603Z,8.89
2023-05-02T09:34:30.532Z,9.19
2023-05-02T09:36:56.937Z,9.28
2023-05-02T09:39:25.480Z,8.86
2023-05-02T09:41:52.698Z,8.74
2023-05-02T09:44:19.477Z,8.68
2023-05-02T09:46:45.964Z,8.81
2023-05-02T09:49:12.378Z,8.48
2023-05-02T09:51:38.772Z,7.99
2023-05-02T09:54:05.289Z,7.36
2023-05-02T09:56:31.648Z,7.17
2023-05-02T09:58:58.858Z,7.08
2023-05-02T10:01:25.278Z,7.01
2023-05-02T10:03:51.750Z,6.95
2023-05-02T10:06:18.261Z,6.37
2023-05-02T10:08:46.802Z,7.25
2023-05-02T10:11:13.218Z,7.52
2023-05-02T10:13:39.926Z,7.24
2023-05-02T10:16:06.440Z,7.84
2023-05-02T10:18:33.390Z,7.83
2023-05-02T10:21:02.187Z,7.79
2023-05-02T10:23:28.737Z,7.42
2023-05-02T10:25:55.098Z,7.28
2023-05-02T10:28:21.612Z,7.66
2023-05-02T10:30:48.429Z,7.86
2023-05-02T10:33:15.066Z,8.02
2023-05-02T10:35:41.551Z,8.23
2023-05-02T10:38:07.956Z,8.22
2023-05-02T10:40:41.986Z,7.92
2023-05-02T10:43:08.591Z,7.87
2023-05-02T10:45:34.953Z,7.76
2023-05-02T10:48:01.500Z,7.10
2023-05-02T10:50:28.327Z,7.06
2023-05-02T10:52:54.701Z,6.49
2023-05-02T10:55:21.052Z,6.33
2023-05-02T10:57:47.399Z,7.21
2023-05-02T11:00:13.844Z,7.22
2023-05-02T11:02:40.429Z,7.53
2023-05-02T11:05:06.957Z,7.76
2023-05-02T11:07:33.360Z,7.92
2023-05-02T11:09:59.788Z,7.63
2023-05-02T11:12:26.196Z,7.74
2023-05-02T11:14:52.633Z,7.42
2023-05-02T11:17:19.064Z,7.91
2023-05-02T11:19:45.472Z,7.28
2023-05-02T11:22:11.833Z,6.74
2023-05-02T11:24:38.184Z,6.76
2023-05-02T11:27:06.867Z,7.06
2023-05-02T11:29:33.269Z,7.01
2023-05-02T11:32:02.518Z,7.02
2023-05-02T11:34:29.101Z,6.54
2023-05-02T11:36:55.778Z,6.61
2023-05-02T11:39:22.212Z,6.73
2023-05-02T11:41:48.543Z,7.01
2023-05-02T11:44:15.002Z,6.72
2023-05-02T11:46:41.415Z,7.26
2023-05-02T11:49:09.347Z,6.87
2023-05-02T11:51:37.062Z,7.22
2023-05-02T11:54:03.609Z,7.34
2023-05-02T11:56:30.285Z,7.25
2023-05-02T11:58:56.853Z,6.56
2023-05-02T12:01:23.243Z,6.53
2023-05-02T12:03:49.853Z,6.14
2023-05-02T12:06:16.460Z,6.01
2023-05-02T12:08:43.013Z,5.72
2023-05-02T12:11:09.384Z,5.72
2023-05-02T12:13:35.787Z,5.71
2023-05-02T12:16:02.345Z,5.77
2023-05-02T12:18:29.885Z,5.55
2023-05-02T12:20:56.231Z,5.83
2023-05-02T12:23:22.567Z,5.68
2023-05-02T12:25:48.896Z,5.69
2023-05-02T12:28:15.357Z,5.40
2023-05-02T12:30:41.743Z,5.09
2023-05-02T12:33:08.234Z,5.50
2023-05-02T12:35:34.632Z,5.17
2023-05-02T12:38:01.027Z,5.04
2023-05-02T12:40:27.380Z,5.22
2023-05-02T12:42:56.333Z,5.16
2023-05-02T12:45:22.849Z,5.62
2023-05-02T12:47:49.277Z,5.96
2023-05-02T12:50:15.801Z,5.36
2023-05-02T12:52:42.198Z,4.62
2023-05-02T12:55:08.563Z,4.41
2023-05-02T12:57:35.975Z,4.10
2023-05-02T13:00:03.161Z,3.67
2023-05-02T13:02:29.820Z,3.79
2023-05-02T13:04:56.225Z,4.14
2023-05-02T13:07:22.573Z,3.72
2023-05-02T13:09:48.958Z,3.84
2023-05-02T13:12:15.348Z,3.55
2023-05-02T13:14:41.902Z,3.91
2023-05-02T13:17:08.553Z,3.70
2023-05-02T13:19:35.087Z,3.68
2023-05-02T13:22:01.798Z,3.58
2023-05-02T13:24:28.147Z,3.29
2023-05-02T13:26:54.525Z,3.64
2023-05-02T13:29:20.930Z,3.23
2023-05-02T13:31:47.578Z,3.22
2023-05-02T13:34:13.960Z,3.08
2023-05-02T13:36:40.349Z,3.02
2023-05-02T13:39:07.176Z,3.10
2023-05-02T13:41:33.532Z,2.96
2023-05-02T13:43:59.910Z,3.11
2023-05-02T13:46:26.534Z,3.04
2023-05-02T13:48:52.987Z,2.87
2023-05-02T13:51:19.399Z,2.88
2023-05-02T13:53:46.118Z,3.08
2023-05-02T13:56:12.656Z,3.32
2023-05-02T13:58:39.060Z,3.08
2023-05-02T14:01:05.474Z,2.93
2023-05-02T14:03:31.999Z,3.20
2023-05-02T14:05:58.400Z,2.88
2023-05-02T14:08:24.858Z,2.81
2023-05-02T14:10:53.315Z,2.95
2023-05-02T14:13:19.738Z,3.48
2023-05-02T14:15:47.080Z,3.55
2023-05-02T14:18:13.676Z,4.12
2023-05-02T14:20:40.139Z,4.32
2023-05-02T14:23:07.577Z,4.32
2023-05-02T14:25:34.267Z,4.15
2023-05-02T14:28:01.087Z,4.01
2023-05-02T14:30:27.457Z,4.07
2023-05-02T14:32:53.878Z,4.00
2023-05-02T14:35:20.427Z,3.79
2023-05-02T14:37:49.262Z,3.80
2023-05-02T14:40:15.662Z,3.38
2023-05-02T14:42:42.086Z,3.80
2023-05-02T14:45:08.522Z,3.98
2023-05-02T14:47:37.294Z,3.98
2023-05-02T14:50:03.961Z,4.07
2023-05-02T14:52:30.487Z,4.03
2023-05-02T14:54:57.044Z,4.14
2023-05-02T14:57:23.561Z,4.32
2023-05-02T14:59:50.181Z,4.31
2023-05-02T15:02:16.711Z,4.05
2023-05-02T15:04:43.293Z,4.08
2023-05-02T15:07:10.181Z,4.11
2023-05-02T15:09:36.968Z,3.73
2023-05-02T15:12:04.383Z,3.43
2023-05-02T15:14:30.889Z,3.97
2023-05-02T15:16:57.315Z,4.08
2023-05-02T15:19:23.754Z,4.12
2023-05-02T15:21:50.617Z,4.24
2023-05-02T15:24:17.361Z,3.86
2023-05-02T15:26:43.765Z,3.42
2023-05-02T15:29:10.622Z,3.51
2023-05-02T15:31:37.599Z,3.39
2023-05-02T15:34:04.010Z,3.60
2023-05-02T15:36:30.595Z,3.79
2023-05-02T15:38:57.545Z,3.82
2023-05-02T15:41:25.136Z,4.29
2023-05-02T15:43:53.557Z,4.37
2023-05-02T15:46:20.285Z,4.40
2023-05-02T15:48:46.714Z,4.05
2023-05-02T15:51:13.134Z,3.70
2023-05-02T15:53:39.994Z,4.41
2023-05-02T15:56:06.405Z,4.61
2023-05-02T15:58:32.823Z,4.44
2023-05-02T16:01:00.252Z,4.52
2023-05-02T16:03:26.725Z,4.24
2023-05-02T16:05:55.335Z,4.32
2023-05-02T16:08:21.856Z,4.22
2023-05-02T16:10:48.268Z,3.89
2023-05-02T16:13:14.675Z,3.88
2023-05-02T16:15:41.276Z,3.52
2023-05-02T16:18:07.943Z,3.68
2023-05-02T16:20:34.650Z,3.71
2023-05-02T16:23:01.098Z,3.90
2023-05-02T16:25:27.720Z,3.68
2023-05-02T16:27:54.150Z,3.58
2023-05-02T16:30:20.561Z,3.60
2023-05-02T16:32:47.030Z,3.93
2023-05-02T16:35:14.492Z,3.91
2023-05-02T16:37:40.907Z,3.59
2023-05-02T16:40:09.775Z,4.41
2023-05-02T16:42:36.182Z,5.24
2023-05-02T16:45:02.544Z,5.45
2023-05-02T16:47:28.958Z,6.18
2023-05-02T16:49:55.361Z,6.23
2023-05-02T16:52:21.690Z,7.15
2023-05-02T16:54:48.025Z,7.15
2023-05-02T16:57:14.398Z,7.27
2023-05-02T16:59:40.761Z,7.16
2023-05-02T17:02:07.160Z,6.48
2023-05-02T17:04:33.571Z,6.23
2023-05-02T17:06:59.951Z,6.52
2023-05-02T17:09:26.348Z,6.25
2023-05-02T17:11:52.744Z,5.90
2023-05-02T17:14:19.100Z,5.67
2023-05-02T17:16:45.479Z,6.24
2023-05-02T17:19:11.895Z,6.16
2023-05-02T17:21:38.249Z,5.61
2023-05-02T17:24:04.650Z,5.23
2023-05-02T17:26:31.015Z,4.93
2023-05-02T17:28:57.384Z,4.63
2023-05-02T17:31:24.086Z,4.45
2023-05-02T17:33:50.509Z,4.67
2023-05-02T17:36:16.870Z,4.82
2023-05-02T17:38:43.364Z,4.22
2023-05-02T17:41:09.709Z,3.81
2023-05-02T17:43:36.083Z,3.85
2023-05-02T17:46:02.497Z,3.62
2023-05-02T17:48:28.962Z,3.56
2023-05-02T17:50:55.454Z,3.40
2023-05-02T17:53:21.808Z,3.41
2023-05-02T17:55:48.261Z,3.72
2023-05-02T17:58:14.827Z,3.78
2023-05-02T18:00:41.557Z,3.91
2023-05-02T18:03:08.050Z,4.07
2023-05-02T18:05:34.578Z,3.34
2023-05-02T18:08:00.947Z,3.62
2023-05-02T18:10:27.389Z,3.81
2023-05-02T18:12:53.769Z,3.74
2023-05-02T18:15:20.238Z,3.59
2023-05-02T18:17:46.638Z,3.66
2023-05-02T18:20:13.039Z,3.56
2023-05-02T18:22:39.689Z,3.80
2023-05-02T18:25:06.658Z,3.60
2023-05-02T18:27:33.339Z,3.67
2023-05-02T18:29:59.746Z,3.35
2023-05-02T18:32:26.325Z,3.27
2023-05-02T18:34:52.926Z,3.61
2023-05-02T18:37:19.400Z,4.19
2023-05-02T18:39:45.812Z,4.07
2023-05-02T18:42:12.219Z,4.04
2023-05-02T18:44:38.638Z,3.74
2023-05-02T18:47:05.004Z,3.77
2023-05-02T18:49:31.386Z,3.80
2023-05-02T18:51:57.825Z,4.68
2023-05-02T18:54:24.270Z,4.74
2023-05-02T18:56:50.753Z,4.94
2023-05-02T18:59:17.202Z,4.41
2023-05-02T19:01:43.899Z,4.41
2023-05-02T19:04:10.306Z,4.70
2023-05-02T19:06:36.765Z,4.27
2023-05-02T19:09:03.194Z,4.13
2023-05-02T19:11:29.536Z,4.28
2023-05-02T19:13:55.919Z,3.83
2023-05-02T19:16:22.374Z,4.46
2023-05-02T19:18:49.053Z,4.04
2023-05-02T19:21:15.504Z,3.99
2023-05-02T19:23:42.067Z,4.20
2023-05-02T19:26:08.475Z,4.27
2023-05-02T19:28:34.842Z,4.12
2023-05-02T19:31:01.248Z,5.45
2023-05-02T19:33:27.680Z,5.86
2023-05-02T19:35:54.374Z,5.38
2023-05-02T19:38:20.723Z,5.09
2023-05-02T19:40:47.097Z,4.87
2023-05-02T19:43:13.507Z,5.37
2023-05-02T19:45:39.936Z,5.15
2023-05-02T19:48:06.339Z,4.91
2023-05-02T19:50:32.779Z,4.95
2023-05-02T19:52:59.317Z,4.79
2023-05-02T19:55:25.811Z,5.08
2023-05-02T19:57:52.182Z,5.05
2023-05-02T20:00:18.573Z,5.20
2023-05-02T20:02:45.119Z,5.17
2023-05-02T20:05:11.638Z,5.10
2023-05-02T20:07:38.046Z,5.39
2023-05-02T20:10:04.659Z,5.25
2023-05-02T20:12:31.223Z,4.96
2023-05-02T20:14:57.556Z,4.41
2023-05-02T20:17:23.938Z,4.56
2023-05-02T20:19:50.328Z,4.17
2023-05-02T20:22:16.720Z,4.15
2023-05-02T20:24:43.136Z,4.17
2023-05-02T20:27:09.613Z,4.19
2023-05-02T20:29:37.033Z,4.31
2023-05-02T20:32:03.462Z,4.83
2023-05-02T20:34:29.905Z,5.50
2023-05-02T20:36:56.257Z,5.03
2023-05-02T20:39:22.648Z,4.20
2023-05-02T20:41:49.062Z,4.12
2023-05-02T20:44:15.445Z,5.24
2023-05-02T20:46:41.937Z,5.23
2023-05-02T20:49:08.426Z,4.47
2023-05-02T20:51:34.859Z,4.60
2023-05-02T20:54:01.255Z,4.20
2023-05-02T20:56:27.616Z,4.40
2023-05-02T20:58:53.961Z,4.44
2023-05-02T21:01:20.449Z,4.16
2023-05-02T21:03:46.942Z,4.22
2023-05-02T21:06:13.334Z,4.35
2023-05-02T21:08:39.931Z,4.16
2023-05-02T21:11:06.293Z,4.68
2023-05-02T21:13:32.641Z,4.52
2023-05-02T21:15:58.997Z,4.77
2023-05-02T21:18:25.355Z,4.49
2023-05-02T21:20:51.710Z,4.36
2023-05-02T21:23:18.145Z,4.31
2023-05-02T21:25:44.506Z,4.61
2023-05-02T21:28:10.901Z,4.39
2023-05-02T21:30:37.283Z,4.22
2023-05-02T21:33:03.747Z,4.45
2023-05-02T21:35:30.139Z,4.73
2023-05-02T21:37:56.943Z,4.57
2023-05-02T21:40:25.591Z,4.72
2023-05-02T21:42:52.297Z,4.44
2023-05-02T21:45:18.700Z,4.56
2023-05-02T21:47:45.098Z,4.63
2023-05-02T21:50:11.499Z,4.51
2023-05-02T21:52:39.124Z,4.51
2023-05-02T21:55:06.179Z,4.57
2023-05-02T21:57:32.537Z,4.83
2023-05-02T21:59:58.917Z,4.82
2023-05-02T22:02:25.355Z,4.97
2023-05-02T22:04:51.810Z,4.65
2023-05-02T22:07:18.260Z,4.56
2023-05-02T22:09:44.913Z,4.80
2023-05-02T22:12:11.370Z,4.89
2023-05-02T22:14:45.338Z,5.04
2023-05-02T22:17:13.728Z,5.37
2023-05-02T22:19:42.773Z,5.24
2023-05-02T22:22:09.171Z,4.86
2023-05-02T22:24:35.758Z,4.94
2023-05-02T22:27:02.382Z,4.66
2023-05-02T22:29:28.832Z,4.58
2023-05-02T22:31:55.538Z,4.77
2023-05-02T22:34:23.274Z,4.51
2023-05-02T22:36:49.787Z,7.26
2023-05-02T22:39:16.114Z,11.99
2023-05-02T22:41:42.596Z,11.27
2023-05-02T22:44:09.060Z,7.61
2023-05-02T22:46:35.645Z,7.73
2023-05-02T22:49:02.089Z,8.10
2023-05-02T22:51:28.540Z,9.21
2023-05-02T22:53:55.508Z,8.39
2023-05-02T22:56:21.887Z,7.19
2023-05-02T22:58:48.533Z,6.00
2023-05-02T23:01:15.023Z,5.49
2023-05-02T23:03:41.842Z,4.94
2023-05-02T23:06:08.839Z,4.70
2023-05-02T23:08:35.262Z,4.45
2023-05-02T23:11:01.889Z,4.60
2023-05-02T23:13:28.582Z,4.59
2023-05-02T23:15:55.058Z,4.47
2023-05-02T23:18:23.969Z,4.32
2023-05-02T23:20:50.586Z,4.30
2023-05-02T23:23:17.022Z,4.49
2023-05-02T23:25:43.602Z,4.68
2023-05-02T23:28:12.473Z,4.72
2023-05-02T23:30:38.908Z,4.24
2023-05-02T23:33:05.450Z,4.32
2023-05-02T23:35:31.940Z,4.39
2023-05-02T23:37:58.667Z,4.77
2023-05-02T23:40:25.180Z,4.37
2023-05-02T23:42:51.565Z,4.04
2023-05-02T23:45:18.306Z,4.14
2023-05-02T23:47:44.759Z,4.06
2023-05-02T23:50:11.634Z,3.99
2023-05-02T23:52:38.130Z,3.93
2023-05-02T23:55:04.618Z,4.08
2023-05-02T23:57:31.044Z,3.81
2023-05-02T23:59:57.542Z,3.91
